createdAt,value
2019-02-04T00:01:46.238Z,16.57
2019-02-04T00:04:15.973Z,10.23
2019-02-04T00:06:45.679Z,14.27
2019-02-04T00:09:15.400Z,16.30
2019-02-04T00:11:45.095Z,17.60
2019-02-04T00:14:14.890Z,18.60
2019-02-04T00:16:44.320Z,13.80
2019-02-04T00:19:13.993Z,11.17
2019-02-04T00:21:43.776Z,17.07
2019-02-04T00:24:13.460Z,18.70
2019-02-04T00:26:51.325Z,11.10
2019-02-04T00:29:14.141Z,13.03
2019-02-04T00:31:43.633Z,14.73
2019-02-04T00:34:13.151Z,13.80
2019-02-04T00:36:42.948Z,10.73
2019-02-04T00:39:12.817Z,12.13
2019-02-04T00:41:42.459Z,15.57
2019-02-04T00:44:12.107Z,14.23
2019-02-04T00:46:51.751Z,11.37
2019-02-04T00:49:13.384Z,11.57
2019-02-04T00:51:43.093Z,17.83
2019-02-04T00:54:12.798Z,16.33
2019-02-04T00:56:42.570Z,17.33
2019-02-04T00:59:12.485Z,10.47
2019-02-04T01:01:41.921Z,14.07
2019-02-04T01:04:11.302Z,15.77
2019-02-04T01:06:40.975Z,17.03
2019-02-04T01:09:11.583Z,14.13
2019-02-04T01:11:41.059Z,13.07
2019-02-04T01:14:10.815Z,15.20
2019-02-04T01:16:40.688Z,12.70
2019-02-04T01:19:10.508Z,11.33
2019-02-04T01:21:40.377Z,10.20
2019-02-04T01:24:10.189Z,13.17
2019-02-04T01:26:39.627Z,20.43
2019-02-04T01:29:09.335Z,22.53
2019-02-04T01:31:39.109Z,19.10
2019-02-04T01:34:08.606Z,21.90
2019-02-04T01:36:38.665Z,19.27
2019-02-04T01:39:09.938Z,21.33
2019-02-04T01:41:39.441Z,22.43
2019-02-04T01:44:09.204Z,24.23
2019-02-04T01:46:39.037Z,24.03
2019-02-04T01:49:08.486Z,24.37
2019-02-04T01:51:38.380Z,20.20
2019-02-04T01:54:07.801Z,22.43
2019-02-04T01:56:37.496Z,18.13
2019-02-04T01:59:06.995Z,14.40
2019-02-04T02:01:37.792Z,16.20
2019-02-04T02:04:07.692Z,11.53
2019-02-04T02:06:37.502Z,13.80
2019-02-04T02:09:16.631Z,13.10
2019-02-04T02:11:46.074Z,11.03
2019-02-04T02:14:15.673Z,15.83
2019-02-04T02:16:45.446Z,16.07
2019-02-04T02:19:14.921Z,17.60
2019-02-04T02:21:44.593Z,21.17
2019-02-04T02:24:14.305Z,18.03
2019-02-04T02:26:43.972Z,17.97
2019-02-04T02:29:14.048Z,12.03
2019-02-04T02:31:43.501Z,20.77
2019-02-04T02:34:12.950Z,23.20
2019-02-04T02:36:42.484Z,23.40
2019-02-04T02:39:12.176Z,17.83
2019-02-04T02:41:41.874Z,16.10
2019-02-04T02:44:11.984Z,18.53
2019-02-04T02:46:41.795Z,15.77
2019-02-04T02:49:11.500Z,10.57
2019-02-04T02:51:40.945Z,14.83
2019-02-04T02:54:10.591Z,20.87
2019-02-04T02:56:40.019Z,11.77
2019-02-04T02:59:09.413Z,11.90
2019-02-04T03:01:38.857Z,14.50
2019-02-04T03:04:08.526Z,16.43
2019-02-04T03:06:38.416Z,14.90
2019-02-04T03:09:08.995Z,16.33
2019-02-04T03:11:38.860Z,21.83
2019-02-04T03:14:08.375Z,16.67
2019-02-04T03:16:37.925Z,14.93
2019-02-04T03:19:07.399Z,11.13
2019-02-04T03:21:36.830Z,12.87
2019-02-04T03:24:06.419Z,11.23
2019-02-04T03:26:36.049Z,49.53
2019-02-04T03:29:05.736Z,87.70
2019-02-04T03:31:38.872Z,72.63
2019-02-04T03:34:06.609Z,38.87
2019-02-04T03:36:36.055Z,38.70
2019-02-04T03:39:08.630Z,32.53
2019-02-04T03:41:38.364Z,30.00
2019-02-04T03:44:07.959Z,87.30
2019-02-04T03:46:37.424Z,269.37
2019-02-04T03:49:07.391Z,57.77
2019-02-04T03:51:36.842Z,180.03
2019-02-04T03:54:06.598Z,88.23
2019-02-04T03:56:36.149Z,37.23
2019-02-04T03:59:05.904Z,32.40
2019-02-04T04:01:35.421Z,41.80
2019-02-04T04:04:05.318Z,21.00
2019-02-04T04:06:35.215Z,28.73
2019-02-04T04:09:07.451Z,32.67
2019-02-04T04:11:36.982Z,36.60
2019-02-04T04:14:06.497Z,36.10
2019-02-04T04:16:35.939Z,38.17
2019-02-04T04:19:05.714Z,38.83
2019-02-04T04:21:35.153Z,46.37
2019-02-04T04:24:04.627Z,77.07
2019-02-04T04:26:34.220Z,65.83
2019-02-04T04:29:04.035Z,52.13
2019-02-04T04:31:33.470Z,53.17
2019-02-04T04:34:03.761Z,52.03
2019-02-04T04:36:33.498Z,54.83
2019-02-04T04:39:04.592Z,60.43
2019-02-04T04:41:34.187Z,49.87
2019-02-04T04:44:03.692Z,55.50
2019-02-04T04:46:33.605Z,52.10
2019-02-04T04:49:03.000Z,54.43
2019-02-04T04:51:32.436Z,51.60
2019-02-04T04:54:04.505Z,41.97
2019-02-04T04:56:33.925Z,44.23
2019-02-04T04:59:03.572Z,34.07
2019-02-04T05:01:33.766Z,41.90
2019-02-04T05:04:03.865Z,67.67
2019-02-04T05:06:33.594Z,71.83
2019-02-04T05:09:04.769Z,57.77
2019-02-04T05:11:34.604Z,59.33
2019-02-04T05:14:04.455Z,64.20
2019-02-04T05:16:33.905Z,59.77
2019-02-04T05:19:03.750Z,63.70
2019-02-04T05:21:33.481Z,62.93
2019-02-04T05:24:02.874Z,67.57
2019-02-04T05:26:32.772Z,77.87
2019-02-04T05:29:02.878Z,71.27
2019-02-04T05:31:32.322Z,69.83
2019-02-04T05:34:01.926Z,63.70
2019-02-04T05:36:31.757Z,67.13
2019-02-04T05:39:01.514Z,64.37
2019-02-04T05:41:30.956Z,63.77
2019-02-04T05:44:00.466Z,73.80
2019-02-04T05:46:30.095Z,65.27
2019-02-04T05:48:59.886Z,68.57
2019-02-04T05:51:29.358Z,66.07
2019-02-04T05:53:58.793Z,67.90
2019-02-04T05:56:28.468Z,66.13
2019-02-04T05:58:58.203Z,69.27
2019-02-04T06:01:28.024Z,71.70
2019-02-04T06:03:57.741Z,65.70
2019-02-04T06:06:27.428Z,276.30
2019-02-04T06:08:57.063Z,66.77
2019-02-04T06:11:27.332Z,69.23
2019-02-04T06:13:57.176Z,68.00
2019-02-04T06:16:26.985Z,67.73
2019-02-04T06:19:00.816Z,64.37
2019-02-04T06:21:27.652Z,61.30
2019-02-04T06:23:57.359Z,69.67
2019-02-04T06:26:26.941Z,67.10
2019-02-04T06:28:56.347Z,83.07
2019-02-04T06:31:26.103Z,74.30
2019-02-04T06:33:55.962Z,65.80
2019-02-04T06:36:25.743Z,100.57
2019-02-04T06:38:56.832Z,93.57
2019-02-04T06:41:26.527Z,138.30
2019-02-04T06:43:56.129Z,192.40
2019-02-04T06:46:25.959Z,290.93
2019-02-04T06:48:55.727Z,199.33
2019-02-04T06:51:25.115Z,152.77
2019-02-04T06:53:54.973Z,68.57
2019-02-04T06:56:24.882Z,81.50
2019-02-04T06:58:54.702Z,54.03
2019-02-04T07:01:24.101Z,53.63
2019-02-04T07:03:53.701Z,62.37
2019-02-04T07:06:24.326Z,61.57
2019-02-04T07:08:53.886Z,66.93
2019-02-04T07:11:23.563Z,159.57
2019-02-04T07:13:53.225Z,182.67
2019-02-04T07:16:22.879Z,139.07
2019-02-04T07:18:52.472Z,119.10
2019-02-04T07:21:22.347Z,115.03
2019-02-04T07:23:52.220Z,93.90
2019-02-04T07:26:21.859Z,113.60
2019-02-04T07:28:51.513Z,50.87
2019-02-04T07:31:21.235Z,53.13
2019-02-04T07:33:50.734Z,52.43
2019-02-04T07:36:20.727Z,40.20
2019-02-04T07:38:50.239Z,56.13
2019-02-04T07:41:19.973Z,31.67
2019-02-04T07:43:49.477Z,33.00
2019-02-04T07:46:18.868Z,36.13
2019-02-04T07:48:48.476Z,33.87
2019-02-04T07:51:18.324Z,32.70
2019-02-04T07:53:47.762Z,33.60
2019-02-04T07:56:17.435Z,31.27
2019-02-04T07:58:47.234Z,46.23
2019-02-04T08:01:16.795Z,32.33
2019-02-04T08:03:46.425Z,28.90
2019-02-04T08:06:15.911Z,30.27
2019-02-04T08:08:45.796Z,28.80
2019-02-04T08:11:15.198Z,26.47
2019-02-04T08:13:44.604Z,29.13
2019-02-04T08:16:14.555Z,31.63
2019-02-04T08:18:44.645Z,35.40
2019-02-04T08:21:14.271Z,31.80
2019-02-04T08:23:43.676Z,29.77
2019-02-04T08:26:13.330Z,33.47
2019-02-04T08:28:42.828Z,31.50
2019-02-04T08:31:12.402Z,27.20
2019-02-04T08:33:42.547Z,26.30
2019-02-04T08:36:12.509Z,22.97
2019-02-04T08:38:42.241Z,20.67
2019-02-04T08:41:12.073Z,22.85
2019-02-04T08:43:41.616Z,22.60
2019-02-04T08:46:11.255Z,24.60
2019-02-04T08:48:41.077Z,27.90
2019-02-04T08:51:10.968Z,28.90
2019-02-04T08:53:40.651Z,28.10
2019-02-04T08:56:10.213Z,30.77
2019-02-04T08:58:39.903Z,30.63
2019-02-04T09:01:09.799Z,36.17
2019-02-04T09:03:40.004Z,36.00
2019-02-04T09:06:09.467Z,32.37
2019-02-04T09:08:38.877Z,27.97
2019-02-04T09:11:08.841Z,29.87
2019-02-04T09:13:38.672Z,29.07
2019-02-04T09:16:08.160Z,30.30
2019-02-04T09:18:44.890Z,29.53
2019-02-04T09:21:09.488Z,23.17
2019-02-04T09:23:39.333Z,25.47
2019-02-04T09:26:09.061Z,28.23
2019-02-04T09:28:38.668Z,31.17
2019-02-04T09:31:08.499Z,24.33
2019-02-04T09:33:38.549Z,23.10
2019-02-04T09:36:08.415Z,26.07
2019-02-04T09:38:38.015Z,25.73
2019-02-04T09:41:07.987Z,26.53
2019-02-04T09:43:37.824Z,23.27
2019-02-04T09:46:07.292Z,24.57
2019-02-04T09:48:37.269Z,20.83
2019-02-04T09:51:07.030Z,23.47
2019-02-04T09:53:36.575Z,25.33
2019-02-04T09:56:06.680Z,24.53
2019-02-04T09:58:36.240Z,25.53
2019-02-04T10:01:06.637Z,21.83
2019-02-04T10:03:36.335Z,23.87
2019-02-04T10:06:06.478Z,26.27
2019-02-04T10:08:36.115Z,20.70
2019-02-04T10:11:05.791Z,25.73
2019-02-04T10:13:35.492Z,27.63
2019-02-04T10:16:05.900Z,28.80
2019-02-04T10:18:37.853Z,23.77
2019-02-04T10:21:07.152Z,23.80
2019-02-04T10:23:36.906Z,23.00
2019-02-04T10:26:06.515Z,21.17
2019-02-04T10:28:36.279Z,21.67
2019-02-04T10:31:05.880Z,22.77
2019-02-04T10:33:35.364Z,22.40
2019-02-04T10:36:05.049Z,24.80
2019-02-04T10:38:34.485Z,33.63
2019-02-04T10:41:04.404Z,28.70
2019-02-04T10:43:34.586Z,24.70
2019-02-04T10:46:05.088Z,27.07
2019-02-04T10:48:35.041Z,27.63
2019-02-04T10:51:04.965Z,25.70
2019-02-04T10:53:34.538Z,34.37
2019-02-04T10:56:04.475Z,31.87
2019-02-04T10:58:34.287Z,30.33
2019-02-04T11:01:05.451Z,25.30
2019-02-04T11:03:35.343Z,24.27
2019-02-04T11:06:05.526Z,23.50
2019-02-04T11:08:34.887Z,28.87
2019-02-04T11:11:04.913Z,26.80
2019-02-04T11:13:34.592Z,24.17
2019-02-04T11:16:04.485Z,28.13
2019-02-04T11:18:34.130Z,27.97
2019-02-04T11:21:04.033Z,25.33
2019-02-04T11:23:33.791Z,25.40
2019-02-04T11:26:03.714Z,26.07
2019-02-04T11:28:33.453Z,30.33
2019-02-04T11:31:05.100Z,28.93
2019-02-04T11:33:34.485Z,27.30
2019-02-04T11:36:04.548Z,27.63
2019-02-04T11:38:34.497Z,30.17
2019-02-04T11:41:04.357Z,29.17
2019-02-04T11:43:33.749Z,30.33
2019-02-04T11:46:03.581Z,26.67
2019-02-04T11:48:33.506Z,25.60
2019-02-04T11:51:09.718Z,28.03
2019-02-04T11:53:34.315Z,27.57
2019-02-04T11:56:03.784Z,28.00
2019-02-04T11:58:33.290Z,41.30
2019-02-04T12:01:03.169Z,35.37
2019-02-04T12:03:33.048Z,30.13
2019-02-04T12:06:02.452Z,29.17
2019-02-04T12:08:32.145Z,28.50
2019-02-04T12:11:21.533Z,29.03
2019-02-04T12:13:51.012Z,28.20
2019-02-04T12:16:20.451Z,23.50
2019-02-04T12:18:49.863Z,33.10
2019-02-04T12:21:21.682Z,39.30
2019-02-04T12:23:51.185Z,25.43
2019-02-04T12:26:20.887Z,29.67
2019-02-04T12:28:51.642Z,26.87
2019-02-04T12:31:21.803Z,38.63
2019-02-04T12:33:51.447Z,30.17
2019-02-04T12:36:20.958Z,30.73
2019-02-04T12:38:50.855Z,30.60
2019-02-04T12:41:20.266Z,32.73
2019-02-04T12:43:50.104Z,33.33
2019-02-04T12:46:20.020Z,34.33
2019-02-04T12:48:49.714Z,33.30
2019-02-04T12:51:19.117Z,29.87
2019-02-04T12:53:48.709Z,31.23
2019-02-04T12:56:18.201Z,29.57
2019-02-04T12:58:55.333Z,35.60
2019-02-04T13:01:19.055Z,30.90
2019-02-04T13:03:48.573Z,40.83
2019-02-04T13:06:18.448Z,29.90
2019-02-04T13:08:48.171Z,30.03
2019-02-04T13:11:18.070Z,25.47
2019-02-04T13:13:48.233Z,29.57
2019-02-04T13:16:18.026Z,31.87
2019-02-04T13:18:47.742Z,35.83
2019-02-04T13:21:17.582Z,44.13
2019-02-04T13:23:47.067Z,47.63
2019-02-04T13:26:16.465Z,30.67
2019-02-04T13:28:46.031Z,28.57
2019-02-04T13:31:15.625Z,29.47
2019-02-04T13:33:45.111Z,29.37
2019-02-04T13:36:14.779Z,40.73
2019-02-04T13:38:44.371Z,37.43
2019-02-04T13:41:14.219Z,35.10
2019-02-04T13:43:44.039Z,34.97
2019-02-04T13:46:13.720Z,38.87
2019-02-04T13:48:43.312Z,39.20
2019-02-04T13:51:13.169Z,40.30
2019-02-04T13:53:42.575Z,41.07
2019-02-04T13:56:14.575Z,35.63
2019-02-04T13:58:44.155Z,33.70
2019-02-04T14:01:14.041Z,31.33
2019-02-04T14:03:43.429Z,29.37
2019-02-04T14:06:13.365Z,33.30
2019-02-04T14:08:43.174Z,31.67
2019-02-04T14:11:12.848Z,36.10
2019-02-04T14:13:42.567Z,34.13
2019-02-04T14:16:12.357Z,32.97
2019-02-04T14:18:41.854Z,30.20
2019-02-04T14:21:11.251Z,36.33
2019-02-04T14:23:40.934Z,40.47
2019-02-04T14:26:10.911Z,35.43
2019-02-04T14:28:40.740Z,39.27
2019-02-04T14:31:10.182Z,42.37
2019-02-04T14:33:39.588Z,41.63
2019-02-04T14:36:09.565Z,38.57
2019-02-04T14:38:39.432Z,49.87
2019-02-04T14:41:09.134Z,46.13
2019-02-04T14:43:50.857Z,38.27
2019-02-04T14:46:35.127Z,35.73
2019-02-04T14:49:47.189Z,43.93
2019-02-04T14:52:46.960Z,35.20
2019-02-04T14:55:52.427Z,33.83
2019-02-04T14:58:46.385Z,32.50
2019-02-04T15:02:02.868Z,31.80
2019-02-04T15:05:23.966Z,35.20
2019-02-04T15:08:39.640Z,46.53
2019-02-04T15:11:33.289Z,70.47
2019-02-04T15:14:32.197Z,38.53
2019-02-04T15:17:26.606Z,89.73
2019-02-04T15:20:55.269Z,200.17
2019-02-04T15:24:09.178Z,216.33
2019-02-04T15:27:05.387Z,167.47
2019-02-04T15:30:13.949Z,179.87
2019-02-04T15:33:19.523Z,129.67
2019-02-04T15:36:32.508Z,84.80
2019-02-04T15:39:29.718Z,83.17
2019-02-04T15:42:31.896Z,54.10
2019-02-04T15:45:04.848Z,42.00
2019-02-04T15:47:42.676Z,38.53
2019-02-04T15:50:55.028Z,36.37
2019-02-04T15:53:24.523Z,47.03
2019-02-04T15:55:54.392Z,39.37
2019-02-04T15:58:23.996Z,82.93
2019-02-04T16:00:55.612Z,71.57
2019-02-04T16:03:25.306Z,80.10
2019-02-04T16:05:54.706Z,89.70
2019-02-04T16:08:24.623Z,154.87
2019-02-04T16:10:54.103Z,107.27
2019-02-04T16:13:23.867Z,81.23
2019-02-04T16:15:53.249Z,82.87
2019-02-04T16:18:22.964Z,110.13
2019-02-04T16:20:52.720Z,98.07
2019-02-04T16:23:22.120Z,82.50
2019-02-04T16:25:51.523Z,63.13
2019-02-04T16:28:21.659Z,55.90
2019-02-04T16:30:53.587Z,68.43
2019-02-04T16:33:23.198Z,72.07
2019-02-04T16:35:52.980Z,59.67
2019-02-04T16:38:22.671Z,64.20
2019-02-04T16:40:52.662Z,59.03
2019-02-04T16:43:22.245Z,97.43
2019-02-04T16:45:52.644Z,74.13
2019-02-04T16:48:22.147Z,75.97
2019-02-04T16:51:10.636Z,102.03
2019-02-04T16:53:25.263Z,69.63
2019-02-04T16:55:55.351Z,72.50
2019-02-04T16:58:24.926Z,64.23
2019-02-04T17:00:54.355Z,60.07
2019-02-04T17:03:24.290Z,48.87
2019-02-04T17:05:53.797Z,42.73
2019-02-04T17:08:23.494Z,36.27
2019-02-04T17:10:53.073Z,30.33
2019-02-04T17:13:23.332Z,35.67
2019-02-04T17:15:53.397Z,32.60
2019-02-04T17:18:22.897Z,32.43
2019-02-04T17:20:52.300Z,37.63
2019-02-04T17:23:22.819Z,40.20
2019-02-04T17:25:54.587Z,44.50
2019-02-04T17:28:24.410Z,43.73
2019-02-04T17:30:54.271Z,45.80
2019-02-04T17:33:24.028Z,46.23
2019-02-04T17:35:53.509Z,36.03
2019-02-04T17:38:23.717Z,40.80
2019-02-04T17:40:53.578Z,40.60
2019-02-04T17:43:23.247Z,47.03
2019-02-04T17:45:52.665Z,42.87
2019-02-04T17:48:23.504Z,41.00
2019-02-04T17:50:53.474Z,38.40
2019-02-04T17:53:33.608Z,41.50
2019-02-04T17:55:54.388Z,39.67
2019-02-04T17:58:24.815Z,39.93
2019-02-04T18:00:55.039Z,39.47
2019-02-04T18:03:25.142Z,41.00
2019-02-04T18:05:55.325Z,45.07
2019-02-04T18:08:24.742Z,46.40
2019-02-04T18:10:54.534Z,58.60
2019-02-04T18:13:24.313Z,66.57
2019-02-04T18:15:54.128Z,69.77
2019-02-04T18:18:24.182Z,72.63
2019-02-04T18:20:53.892Z,82.13
2019-02-04T18:23:23.732Z,81.77
2019-02-04T18:25:53.641Z,65.50
2019-02-04T18:28:23.104Z,61.87
2019-02-04T18:30:52.837Z,56.00
2019-02-04T18:33:22.674Z,50.33
2019-02-04T18:35:52.217Z,46.23
2019-02-04T18:38:21.635Z,45.47
2019-02-04T18:40:51.315Z,56.13
2019-02-04T18:43:21.191Z,59.70
2019-02-04T18:45:50.946Z,62.33
2019-02-04T18:48:21.122Z,56.50
2019-02-04T18:50:50.834Z,60.33
2019-02-04T18:53:20.257Z,104.47
2019-02-04T18:55:49.689Z,98.47
2019-02-04T18:58:19.433Z,118.57
2019-02-04T19:00:49.679Z,104.20
2019-02-04T19:03:19.096Z,85.90
2019-02-04T19:05:48.650Z,70.30
2019-02-04T19:08:18.376Z,54.10
2019-02-04T19:10:47.874Z,38.40
2019-02-04T19:13:17.298Z,37.77
2019-02-04T19:15:46.877Z,60.63
2019-02-04T19:18:18.793Z,65.43
2019-02-04T19:20:48.719Z,54.40
2019-02-04T19:23:18.465Z,48.10
2019-02-04T19:25:48.118Z,45.20
2019-02-04T19:28:17.980Z,42.50
2019-02-04T19:31:17.200Z,89.70
2019-02-04T19:33:47.069Z,88.40
2019-02-04T19:36:18.577Z,80.10
2019-02-04T19:38:48.465Z,68.97
2019-02-04T19:41:18.333Z,62.00
2019-02-04T19:43:47.833Z,55.13
2019-02-04T19:46:17.339Z,41.57
2019-02-04T19:48:46.741Z,39.87
2019-02-04T19:51:16.523Z,39.13
2019-02-04T19:53:46.031Z,31.70
2019-02-04T19:56:15.534Z,35.07
2019-02-04T19:58:45.082Z,31.30
2019-02-04T20:01:14.751Z,35.23
2019-02-04T20:03:44.548Z,33.73
2019-02-04T20:06:14.335Z,46.03
2019-02-04T20:08:44.090Z,34.40
2019-02-04T20:11:13.767Z,39.20
2019-02-04T20:13:43.399Z,44.07
2019-02-04T20:16:13.252Z,37.57
2019-02-04T20:18:42.786Z,119.90
2019-02-04T20:21:12.456Z,85.10
2019-02-04T20:23:41.978Z,38.73
2019-02-04T20:26:11.636Z,43.97
2019-02-04T20:28:41.039Z,22.43
2019-02-04T20:31:10.486Z,31.73
2019-02-04T20:33:40.019Z,30.27
2019-02-04T20:36:10.096Z,50.77
2019-02-04T20:38:39.928Z,68.13
2019-02-04T20:41:09.652Z,53.70
2019-02-04T20:43:40.552Z,51.20
2019-02-04T20:46:10.096Z,47.63
2019-02-04T20:48:39.874Z,81.73
2019-02-04T20:51:09.835Z,70.10
2019-02-04T20:53:39.528Z,45.90
2019-02-04T20:56:09.238Z,42.83
2019-02-04T20:58:38.822Z,54.43
2019-02-04T21:01:08.779Z,43.40
2019-02-04T21:03:38.185Z,38.03
2019-02-04T21:06:07.596Z,27.97
2019-02-04T21:08:38.449Z,26.17
2019-02-04T21:11:08.188Z,24.70
2019-02-04T21:13:37.577Z,22.50
2019-02-04T21:16:06.990Z,20.30
2019-02-04T21:18:36.535Z,18.27
2019-02-04T21:21:06.010Z,16.97
2019-02-04T21:23:35.422Z,23.20
2019-02-04T21:26:06.960Z,30.97
2019-02-04T21:28:36.517Z,31.53
2019-02-04T21:31:06.299Z,30.30
2019-02-04T21:33:36.069Z,37.47
2019-02-04T21:36:05.783Z,31.87
2019-02-04T21:38:35.178Z,31.90
2019-02-04T21:41:04.823Z,26.13
2019-02-04T21:43:35.120Z,24.13
2019-02-04T21:46:04.715Z,31.33
2019-02-04T21:48:34.286Z,28.67
2019-02-04T21:51:03.728Z,29.60
2019-02-04T21:53:33.447Z,24.13
2019-02-04T21:56:03.346Z,23.97
2019-02-04T21:58:32.785Z,24.77
2019-02-04T22:01:02.378Z,22.43
2019-02-04T22:03:31.992Z,20.60
2019-02-04T22:06:01.613Z,22.27
2019-02-04T22:08:31.007Z,21.60
2019-02-04T22:11:00.605Z,24.33
2019-02-04T22:13:30.257Z,21.67
2019-02-04T22:15:59.942Z,21.20
2019-02-04T22:18:29.758Z,24.60
2019-02-04T22:20:59.569Z,25.33
2019-02-04T22:23:29.150Z,21.00
2019-02-04T22:25:58.971Z,18.50
2019-02-04T22:28:28.593Z,15.60
2019-02-04T22:30:58.690Z,21.90
2019-02-04T22:33:28.100Z,19.43
2019-02-04T22:35:57.590Z,22.53
2019-02-04T22:38:27.197Z,17.43
2019-02-04T22:40:56.794Z,16.90
2019-02-04T22:43:26.275Z,19.53
2019-02-04T22:45:55.920Z,20.87
2019-02-04T22:48:25.719Z,20.60
2019-02-04T22:50:55.138Z,19.87
2019-02-04T22:53:24.733Z,16.33
2019-02-04T22:55:54.125Z,16.73
2019-02-04T22:58:23.606Z,18.63
2019-02-04T23:01:18.816Z,19.30
2019-02-04T23:03:48.261Z,20.37
2019-02-04T23:06:17.927Z,21.30
2019-02-04T23:08:47.432Z,17.67
2019-02-04T23:11:17.218Z,25.23
2019-02-04T23:13:46.623Z,28.43
2019-02-04T23:16:16.024Z,36.40
2019-02-04T23:18:45.442Z,31.93
2019-02-04T23:21:14.848Z,26.00
2019-02-04T23:23:44.304Z,20.03
2019-02-04T23:26:14.141Z,21.87
2019-02-04T23:28:43.542Z,27.73
2019-02-04T23:31:12.944Z,27.47
2019-02-04T23:33:42.428Z,22.27
2019-02-04T23:36:11.953Z,22.40
2019-02-04T23:38:41.356Z,20.60
2019-02-04T23:41:10.757Z,21.50
2019-02-04T23:43:40.261Z,20.77
2019-02-04T23:46:09.753Z,21.13
2019-02-04T23:48:39.180Z,21.70
2019-02-04T23:51:08.575Z,20.60
2019-02-04T23:53:38.063Z,21.30
2019-02-04T23:56:07.652Z,15.37
2019-02-04T23:58:37.042Z,13.17
